Time;durP1;ratioP1;P1;durP2;ratioP2;P2;SDS_P1;SDS_P2;PMS_P1;PMS_P2;Temp;Humidity;BMP_temperature;BMP_pressure;BME280_temperature;BME280_humidity;BME280_pressure;Samples;Min_cycle;Max_cycle;Signal;HPM_P1;HPM_P2
2021/12/21 00:00:59;;;;;;;20.40;8.55;;;;;;;-1.90;100.00;102794.59;5054235;28;20087;-51
2021/12/21 00:03:27;;;;;;;19.90;8.60;;;;;;;-1.87;100.00;102799.84;5051067;28;20044;-53
2021/12/21 00:05:55;;;;;;;18.35;8.93;;;;;;;-1.90;100.00;102797.19;5051414;28;20049;-53
2021/12/21 00:08:23;;;;;;;21.67;9.23;;;;;;;-1.90;100.00;102792.03;5053540;28;20048;-50
2021/12/21 00:11:13;;;;;;;20.02;8.95;;;;;;;-2.01;100.00;102790.97;5053899;28;20528;-51
2021/12/21 00:13:59;;;;;;;23.95;9.55;;;;;;;-2.06;100.00;102790.00;5051188;28;20053;-51
2021/12/21 00:19:24;;;;;;;20.13;8.95;;;;;;;-2.12;100.00;102800.22;5037423;28;20053;-51
2021/12/21 00:21:58;;;;;;;19.35;8.75;;;;;;;-2.18;100.00;102795.84;5053940;28;20041;-48
2021/12/21 00:24:31;;;;;;;20.65;9.15;;;;;;;-2.23;100.00;102792.28;5053966;28;20546;-52
2021/12/21 00:27:07;;;;;;;20.23;8.50;;;;;;;-2.25;100.00;102781.94;5052013;28;20050;-53
2021/12/21 00:29:36;;;;;;;13.93;8.13;;;;;;;-2.30;100.00;102778.41;5050981;28;20073;-52
2021/12/21 00:32:04;;;;;;;16.05;9.02;;;;;;;-2.33;100.00;102778.34;5054108;28;20446;-50
2021/12/21 00:34:32;;;;;;;19.30;9.05;;;;;;;-2.32;100.00;102772.34;5053962;28;20140;-50
2021/12/21 00:37:01;;;;;;;15.95;8.68;;;;;;;-2.29;100.00;102775.00;5053899;28;20059;-53
2021/12/21 00:39:29;;;;;;;18.60;9.05;;;;;;;-2.34;100.00;102779.19;5051731;28;20135;-52
2021/12/21 00:41:57;;;;;;;22.10;9.73;;;;;;;-2.39;100.00;102768.81;5051571;28;20320;-53
2021/12/21 00:44:27;;;;;;;16.17;8.48;;;;;;;-2.41;100.00;102767.03;5053575;28;20044;-53
2021/12/21 00:46:55;;;;;;;15.20;8.65;;;;;;;-2.34;100.00;102770.59;5052255;28;20099;-53
2021/12/21 00:49:24;;;;;;;19.20;8.82;;;;;;;-2.42;100.00;102765.28;5053355;28;20061;-52
2021/12/21 00:51:52;;;;;;;21.25;8.63;;;;;;;-2.40;100.00;102764.47;5051854;28;20037;-51
2021/12/21 00:54:20;;;;;;;21.67;8.75;;;;;;;-2.44;100.00;102766.94;5050682;28;20060;-53
2021/12/21 00:56:48;;;;;;;15.77;9.30;;;;;;;-2.47;100.00;102764.31;5053072;28;20045;-50
2021/12/21 00:59:16;;;;;;;19.63;9.02;;;;;;;-2.47;100.00;102778.06;5053375;28;20056;-52
2021/12/21 01:01:46;;;;;;;25.40;9.35;;;;;;;-2.47;100.00;102769.47;5053392;28;20043;-54
2021/12/21 01:04:21;;;;;;;23.67;9.93;;;;;;;-2.45;100.00;102760.06;5053231;28;20495;-55
2021/12/21 01:07:01;;;;;;;18.98;9.27;;;;;;;-2.47;100.00;102772.03;5053392;28;20045;-53
2021/12/21 01:12:24;;;;;;;19.75;9.15;;;;;;;-2.57;100.00;102777.00;5031616;28;20136;-50
2021/12/21 01:15:06;;;;;;;16.73;8.93;;;;;;;-2.51;100.00;102770.25;5052747;28;20050;-52
2021/12/21 01:17:47;;;;;;;17.03;8.97;;;;;;;-2.66;100.00;102775.97;5052705;28;20072;-53
2021/12/21 01:20:28;;;;;;;21.08;9.93;;;;;;;-2.64;100.00;102769.16;5052313;28;20481;-53
2021/12/21 01:23:18;;;;;;;21.42;8.98;;;;;;;-2.65;100.00;102760.53;5052884;28;20514;-52
2021/12/21 01:25:53;;;;;;;21.00;9.20;;;;;;;-2.66;100.00;102769.09;5050747;28;20049;-50
2021/12/21 01:28:29;;;;;;;20.27;9.30;;;;;;;-2.66;100.00;102766.50;5049989;28;20041;-53
2021/12/21 01:31:03;;;;;;;20.85;9.80;;;;;;;-2.68;100.00;102768.19;5052982;28;20162;-54
2021/12/21 01:33:55;;;;;;;21.23;8.75;;;;;;;-2.72;100.00;102767.25;5052765;28;20482;-53
2021/12/21 01:36:30;;;;;;;20.35;9.45;;;;;;;-2.73;100.00;102760.38;5052491;28;20053;-54
2021/12/21 01:39:05;;;;;;;20.23;9.90;;;;;;;-2.74;100.00;102758.66;5050282;28;20092;-55
2021/12/21 01:41:39;;;;;;;17.00;8.70;;;;;;;-2.78;100.00;102749.13;5051346;28;20103;-53
2021/12/21 01:44:21;;;;;;;18.35;8.80;;;;;;;-2.72;100.00;102762.09;5052595;28;20049;-52
2021/12/21 01:49:40;;;;;;;16.70;9.15;;;;;;;-2.82;100.00;102756.72;5048569;28;20059;-52
2021/12/21 01:52:11;;;;;;;18.30;9.48;;;;;;;-2.86;100.00;102748.09;5051290;28;20037;-54
2021/12/21 01:54:40;;;;;;;16.88;7.57;;;;;;;-2.87;100.00;102753.22;5052774;28;20057;-53
2021/12/21 01:57:10;;;;;;;20.42;8.57;;;;;;;-2.73;100.00;102749.19;5052319;28;20478;-53
2021/12/21 01:59:39;;;;;;;17.27;8.32;;;;;;;-2.81;100.00;102745.59;5052576;28;20049;-49
2021/12/21 02:02:10;;;;;;;17.48;8.18;;;;;;;-2.90;100.00;102749.72;5051044;28;20135;-54
2021/12/21 02:04:41;;;;;;;18.77;8.18;;;;;;;-2.83;100.00;102750.72;5048274;28;20055;-53
2021/12/21 02:07:10;;;;;;;17.38;8.23;;;;;;;-2.89;100.00;102740.28;5051629;28;20392;-53
2021/12/21 02:09:39;;;;;;;17.25;7.82;;;;;;;-2.97;100.00;102739.25;5051923;28;20052;-52
2021/12/21 02:12:10;;;;;;;16.25;8.63;;;;;;;-2.93;100.00;102743.63;5051663;28;20056;-48
2021/12/21 02:14:39;;;;;;;15.75;8.20;;;;;;;-2.94;100.00;102740.19;5051641;28;20056;-52
2021/12/21 02:17:30;;;;;;;17.60;7.70;;;;;;;-2.97;100.00;102736.66;5052450;28;20053;-53
2021/12/21 02:20:10;;;;;;;22.67;9.27;;;;;;;-2.99;100.00;102739.22;5051780;28;20504;-49
2021/12/21 02:22:44;;;;;;;17.23;7.85;;;;;;;-3.05;100.00;102741.66;5049471;28;20047;-52
2021/12/21 02:25:35;;;;;;;15.75;7.85;;;;;;;-2.99;100.00;102730.63;5050132;28;20096;-56
2021/12/21 02:28:22;;;;;;;18.55;7.75;;;;;;;-3.09;100.00;102735.56;5051145;28;20420;-51
2021/12/21 02:30:54;;;;;;;17.35;7.53;;;;;;;-3.12;100.00;102742.34;5051561;28;20056;-49
2021/12/21 02:33:25;;;;;;;18.90;7.80;;;;;;;-3.02;100.00;102735.72;5052013;28;20112;-53
2021/12/21 02:35:55;;;;;;;15.57;7.68;;;;;;;-3.06;100.00;102737.34;5050073;28;20059;-53
2021/12/21 02:38:23;;;;;;;18.73;7.82;;;;;;;-3.10;100.00;102728.69;5048944;28;20157;-53
2021/12/21 02:40:51;;;;;;;19.20;8.10;;;;;;;-3.06;100.00;102729.63;5051284;28;20040;-53
2021/12/21 02:43:19;;;;;;;17.73;8.55;;;;;;;-3.01;100.00;102727.13;5051527;28;20041;-54
2021/12/21 02:45:48;;;;;;;17.20;7.70;;;;;;;-3.09;100.00;102722.69;5051528;28;20033;-54
2021/12/21 02:48:16;;;;;;;20.00;7.63;;;;;;;-3.06;100.00;102724.47;5051426;28;20060;-54
2021/12/21 02:50:44;;;;;;;16.13;8.43;;;;;;;-3.10;100.00;102715.81;5051480;28;20045;-54
2021/12/21 02:53:13;;;;;;;15.30;7.38;;;;;;;-3.09;100.00;102719.28;5051396;28;20052;-50
2021/12/21 02:55:42;;;;;;;17.77;7.90;;;;;;;-3.08;100.00;102714.16;5051413;28;20080;-52
2021/12/21 02:58:10;;;;;;;13.57;6.97;;;;;;;-3.18;100.00;102709.63;5051423;28;20045;-54
2021/12/21 03:00:38;;;;;;;15.20;8.32;;;;;;;-3.26;100.00;102712.03;5050722;28;20124;-51
2021/12/21 03:03:12;;;;;;;17.30;7.82;;;;;;;-3.10;100.00;102714.94;5047873;28;20044;-54
2021/12/21 03:05:45;;;;;;;16.08;7.15;;;;;;;-3.13;100.00;102712.31;5050340;28;20060;-53
2021/12/21 03:08:19;;;;;;;13.25;7.15;;;;;;;-3.21;100.00;102708.72;5051256;28;20061;-53
2021/12/21 03:11:01;;;;;;;15.57;6.88;;;;;;;-3.15;100.00;102704.56;5051420;28;20060;-53
2021/12/21 03:16:23;;;;;;;14.23;7.30;;;;;;;-3.23;100.00;102711.25;5015320;28;19928;-53
2021/12/21 03:18:55;;;;;;;17.17;8.07;;;;;;;-3.26;100.00;102704.31;5051438;28;20399;-51
2021/12/21 03:21:23;;;;;;;;;;;;;;;-3.24;100.00;102707.78;5051811;28;20041;-53
2021/12/21 03:23:53;;;;;;;14.18;7.20;;;;;;;-3.21;100.00;102706.13;5051136;28;20287;-49
2021/12/21 03:26:21;;;;;;;16.65;6.72;;;;;;;-3.30;100.00;102705.09;5051007;28;20396;-50
2021/12/21 03:28:49;;;;;;;13.18;6.82;;;;;;;-3.31;100.00;102705.03;5048332;28;20053;-51
2021/12/21 03:31:18;;;;;;;14.65;7.18;;;;;;;-3.30;100.00;102705.09;5049106;28;20088;-51
2021/12/21 03:33:47;;;;;;;13.50;7.40;;;;;;;-3.32;100.00;102706.75;5051088;28;20057;-53
2021/12/21 03:36:17;;;;;;;14.13;7.38;;;;;;;-3.24;100.00;102707.78;5050741;28;20136;-54
2021/12/21 03:38:51;;;;;;;18.55;7.68;;;;;;;-3.23;100.00;102708.69;5050535;28;20561;-52
2021/12/21 03:41:22;;;;;;;18.65;7.38;;;;;;;-3.30;100.00;102714.50;5050333;28;20500;-52
2021/12/21 03:43:50;;;;;;;14.57;6.45;;;;;;;-3.37;100.00;102716.06;5048254;28;20033;-54
2021/12/21 03:46:18;;;;;;;14.57;6.75;;;;;;;-3.37;100.00;102707.50;5049139;28;20041;-53
2021/12/21 03:48:48;;;;;;;18.13;7.32;;;;;;;-3.36;100.00;102715.25;5051066;28;20041;-53
2021/12/21 03:51:19;;;;;;;19.60;6.70;;;;;;;-3.42;100.00;102710.81;5052195;28;20045;-49
2021/12/21 03:53:49;;;;;;;12.05;6.60;;;;;;;-3.43;100.00;102714.22;5052403;28;20049;-51
2021/12/21 03:59:04;;;;;;;14.38;6.47;;;;;;;-3.46;100.00;102709.00;5054477;28;20059;-52
2021/12/21 04:01:33;;;;;;;14.45;6.88;;;;;;;-3.42;100.00;102710.81;5054732;28;20037;-53
2021/12/21 04:04:01;;;;;;;16.33;6.70;;;;;;;-3.38;100.00;102722.06;5054471;28;20041;-56
2021/12/21 04:06:30;;;;;;;12.55;6.78;;;;;;;-3.48;100.00;102718.38;5054304;28;20053;-51
2021/12/21 04:08:58;;;;;;;13.60;7.10;;;;;;;-3.49;100.00;102708.97;5054347;28;20045;-53
2021/12/21 04:11:26;;;;;;;14.57;6.55;;;;;;;-3.44;100.00;102702.19;5054142;28;20051;-53
2021/12/21 04:13:56;;;;;;;16.17;6.82;;;;;;;-3.39;100.00;102702.31;5054030;28;20045;-52
2021/12/21 04:16:25;;;;;;;14.13;6.25;;;;;;;-3.49;100.00;102700.34;5052323;28;20064;-49
2021/12/21 04:18:53;;;;;;;12.10;6.47;;;;;;;-3.49;100.00;102705.50;5050045;28;20052;-55
2021/12/21 04:21:21;;;;;;;12.38;6.63;;;;;;;-3.51;100.00;102707.19;5054209;28;20045;-52
2021/12/21 04:23:49;;;;;;;18.80;7.25;;;;;;;-3.54;100.00;102702.81;5054229;28;20055;-53
2021/12/21 04:26:18;;;;;;;12.02;6.57;;;;;;;-3.59;100.00;102705.28;5054097;28;20056;-53
2021/12/21 04:28:47;;;;;;;16.40;8.00;;;;;;;-3.59;100.00;102705.28;5054259;28;20048;-54
2021/12/21 04:31:15;;;;;;;15.57;6.95;;;;;;;-3.57;100.00;102706.19;5054176;28;20060;-53
2021/12/21 04:33:46;;;;;;;15.00;6.97;;;;;;;-3.53;100.00;102704.56;5054031;28;20045;-51
2021/12/21 04:36:16;;;;;;;13.63;7.15;;;;;;;-3.57;100.00;102706.19;5052648;28;20053;-51
2021/12/21 04:38:47;;;;;;;16.95;6.97;;;;;;;-3.53;100.00;102706.25;5051586;28;20052;-52
2021/12/21 04:41:22;;;;;;;13.82;6.60;;;;;;;-3.55;100.00;102697.66;5052825;28;20056;-52
2021/12/21 04:43:52;;;;;;;15.18;6.85;;;;;;;-3.60;100.00;102708.69;5053534;28;20045;-53
2021/12/21 04:46:21;;;;;;;16.38;7.20;;;;;;;-3.61;100.00;102698.38;5053034;28;20055;-50
2021/12/21 04:48:50;;;;;;;15.52;7.10;;;;;;;-3.64;100.00;102703.44;5053564;28;20045;-53
2021/12/21 04:51:19;;;;;;;15.27;6.90;;;;;;;-3.61;100.00;102703.53;5053509;28;20468;-50
2021/12/21 04:53:47;;;;;;;15.75;6.65;;;;;;;-3.68;100.00;102697.38;5053778;28;20060;-51
2021/12/21 04:56:15;;;;;;;16.63;7.13;;;;;;;-3.76;100.00;102704.03;5053593;28;20053;-55
2021/12/21 04:58:44;;;;;;;14.88;7.90;;;;;;;-3.70;100.00;102704.16;5053910;28;20053;-53
2021/12/21 05:01:12;;;;;;;14.38;7.57;;;;;;;-3.78;100.00;102698.81;5053408;28;20037;-52
2021/12/21 05:03:40;;;;;;;15.43;7.43;;;;;;;-3.73;100.00;102688.66;5049394;28;20044;-53
2021/12/21 05:06:10;;;;;;;18.05;7.50;;;;;;;-3.76;100.00;102699.75;5050461;28;20049;-52
2021/12/21 05:08:39;;;;;;;14.88;7.57;;;;;;;-3.81;100.00;102696.19;5052494;28;20052;-51
2021/12/21 05:11:08;;;;;;;15.15;6.50;;;;;;;-3.87;100.00;102696.06;5053106;28;20479;-54
2021/12/21 05:13:40;;;;;;;18.48;7.78;;;;;;;-3.89;100.00;102689.13;5053031;28;20045;-53
2021/12/21 05:16:08;;;;;;;14.88;7.20;;;;;;;-3.85;100.00;102691.81;5051394;28;20513;-53
2021/12/21 05:18:36;;;;;;;14.27;7.50;;;;;;;-3.86;100.00;102690.06;5052880;28;20083;-52
2021/12/21 05:21:05;;;;;;;16.45;7.55;;;;;;;-3.82;100.00;102681.59;5053053;28;20111;-51
2021/12/21 05:23:35;;;;;;;13.90;7.95;;;;;;;-3.81;100.00;102688.47;5052758;28;20045;-53
2021/12/21 05:26:03;;;;;;;16.48;7.53;;;;;;;-3.81;100.00;102690.19;5052943;28;20049;-52
2021/12/21 05:28:31;;;;;;;15.15;7.38;;;;;;;-3.85;100.00;102690.94;5051724;28;20060;-52
2021/12/21 05:30:59;;;;;;;18.10;8.13;;;;;;;-3.80;100.00;102697.06;5050634;28;20049;-54
2021/12/21 05:33:28;;;;;;;11.75;7.15;;;;;;;-3.83;100.00;102697.88;5051745;28;20081;-54
2021/12/21 05:35:57;;;;;;;17.33;8.63;;;;;;;-3.89;100.00;102695.13;5052675;28;20048;-53
2021/12/21 05:38:31;;;;;;;16.05;9.02;;;;;;;-3.86;100.00;102691.78;5049828;28;20036;-51
2021/12/21 05:41:03;;;;;;;18.65;8.27;;;;;;;-3.90;100.00;102693.38;5051033;28;20060;-53
2021/12/21 05:43:31;;;;;;;21.33;8.27;;;;;;;-3.92;100.00;102693.34;5050570;28;20144;-52
2021/12/21 05:46:00;;;;;;;19.15;9.10;;;;;;;-3.94;100.00;102700.16;5049525;28;20040;-52
2021/12/21 05:48:28;;;;;;;17.27;8.50;;;;;;;-3.99;100.00;102700.91;5051984;28;20239;-53
2021/12/21 05:50:56;;;;;;;18.80;8.93;;;;;;;-3.89;100.00;102699.41;5052299;28;20063;-53
2021/12/21 05:53:24;;;;;;;18.65;9.82;;;;;;;-3.94;100.00;102699.28;5052412;28;20119;-52
2021/12/21 05:55:52;;;;;;;19.83;8.90;;;;;;;-3.97;100.00;102705.22;5052233;28;20037;-51
2021/12/21 05:58:22;;;;;;;14.10;9.23;;;;;;;-4.00;100.00;102715.44;5052100;28;20384;-53
2021/12/21 06:00:50;;;;;;;19.50;9.68;;;;;;;-3.98;100.00;102703.50;5052063;28;20052;-55
2021/12/21 06:03:18;;;;;;;16.50;8.65;;;;;;;-4.02;100.00;102700.78;5052060;28;20144;-52
2021/12/21 06:05:47;;;;;;;19.52;8.75;;;;;;;-3.89;100.00;102707.13;5052222;28;20373;-53
2021/12/21 06:08:19;;;;;;;15.77;9.60;;;;;;;-4.01;100.00;102707.69;5051985;28;20051;-56
2021/12/21 06:10:50;;;;;;;20.35;9.52;;;;;;;-4.04;100.00;102702.47;5050741;28;20462;-51
2021/12/21 06:13:39;;;;;;;18.40;9.77;;;;;;;-4.07;100.00;102698.97;5049039;28;20100;-53
2021/12/21 06:22:43;;;;;;;20.10;9.75;;;;;;;-4.03;100.00;102691.38;5051768;28;20926;-54
2021/12/21 06:27:33;;;;;;;16.13;9.13;;;;;;;-3.93;100.00;102696.78;5024882;28;20077;-53
2021/12/21 06:30:02;;;;;;;19.95;10.15;;;;;;;-3.98;100.00;102694.91;5028753;28;20060;-53
2021/12/21 06:32:37;;;;;;;15.77;9.88;;;;;;;-4.04;100.00;102697.34;5031581;28;20045;-51
2021/12/21 06:35:06;;;;;;;17.10;9.43;;;;;;;-4.06;100.00;102697.28;5031555;28;20552;-54
2021/12/21 06:37:35;;;;;;;18.15;9.38;;;;;;;-4.11;100.00;102694.59;5031769;28;20045;-54
2021/12/21 06:40:05;;;;;;;17.42;10.57;;;;;;;-4.09;100.00;102697.19;5031533;28;20527;-53
2021/12/21 06:42:34;;;;;;;18.48;10.38;;;;;;;-4.11;100.00;102696.31;5030534;28;20411;-51
2021/12/21 06:45:10;;;;;;;17.52;10.55;;;;;;;-4.13;100.00;102693.69;5031815;28;20057;-52
2021/12/21 06:53:12;;;;;;;19.50;9.80;;;;;;;-4.16;100.00;102690.16;5028554;28;20053;-52
2021/12/21 06:55:40;;;;;;;20.45;10.27;;;;;;;-4.16;100.00;102696.19;5029841;28;20049;-53
2021/12/21 06:58:08;;;;;;;20.10;10.38;;;;;;;-4.16;100.00;102695.31;5030477;28;20111;-50
2021/12/21 07:00:37;;;;;;;19.42;10.82;;;;;;;-4.18;100.00;102689.28;5029093;28;20045;-51
2021/12/21 07:03:07;;;;;;;22.08;11.18;;;;;;;-4.18;100.00;102692.72;5030794;28;20052;-53
2021/12/21 07:05:36;;;;;;;19.80;10.68;;;;;;;-4.20;100.00;102689.22;5031327;28;20072;-54
2021/12/21 07:08:06;;;;;;;19.17;11.23;;;;;;;-4.19;100.00;102693.53;5031344;28;20404;-54
2021/12/21 07:10:37;;;;;;;21.00;11.52;;;;;;;-4.19;100.00;102697.81;5030094;28;20050;-51
2021/12/21 07:18:39;;;;;;;22.75;11.23;;;;;;;-4.18;100.00;102699.56;5031010;28;20504;-49
2021/12/21 07:21:07;;;;;;;19.92;11.77;;;;;;;-4.17;100.00;102703.84;5030992;28;20050;-54
2021/12/21 07:23:35;;;;;;;20.60;11.40;;;;;;;-4.19;100.00;102705.53;5031483;28;20518;-51
2021/12/21 07:26:03;;;;;;;21.02;11.10;;;;;;;-4.21;100.00;102710.63;5032270;28;20520;-54
2021/12/21 07:28:31;;;;;;;19.23;11.45;;;;;;;-4.15;100.00;102709.91;5034925;28;20049;-54
2021/12/21 07:31:00;;;;;;;20.20;11.60;;;;;;;-4.15;100.00;102708.19;5035022;28;20084;-53
2021/12/21 07:33:28;;;;;;;23.35;11.25;;;;;;;-4.16;100.00;102709.06;5035227;28;20049;-54
2021/12/21 07:35:57;;;;;;;24.17;11.48;;;;;;;-4.15;100.00;102702.19;5034798;28;20472;-53
2021/12/21 07:38:32;;;;;;;23.67;11.40;;;;;;;-4.16;100.00;102705.59;5035312;28;20473;-53
2021/12/21 07:41:01;;;;;;;21.05;11.48;;;;;;;-4.16;100.00;102706.47;5034868;28;20413;-53
2021/12/21 07:43:30;;;;;;;23.48;11.15;;;;;;;-4.16;100.00;102703.91;5034786;28;20457;-50
2021/12/21 07:45:58;;;;;;;20.00;11.27;;;;;;;-4.12;100.00;102716.00;5034651;28;20052;-51
2021/12/21 07:48:26;;;;;;;20.67;10.30;;;;;;;-4.09;100.00;102720.31;5030975;28;20144;-53
2021/12/21 07:50:56;;;;;;;24.98;13.00;;;;;;;-4.12;100.00;102718.56;5031720;28;20554;-52
2021/12/21 07:53:25;;;;;;;29.30;14.05;;;;;;;-4.14;100.00;102719.38;5033742;28;20497;-53
2021/12/21 07:55:53;;;;;;;23.65;13.60;;;;;;;-4.15;100.00;102717.63;5034404;28;20088;-52
2021/12/21 07:58:26;;;;;;;26.83;13.90;;;;;;;-4.13;100.00;102728.78;5030721;28;20550;-53
2021/12/21 08:00:54;;;;;;;23.90;12.80;;;;;;;-4.14;100.00;102725.38;5032843;28;20045;-54
2021/12/21 08:03:23;;;;;;;29.95;13.48;;;;;;;-4.12;100.00;102723.72;5030468;28;20053;-55
2021/12/21 08:05:54;;;;;;;24.25;14.73;;;;;;;-4.10;100.00;102716.91;5031057;28;20511;-52
2021/12/21 08:08:27;;;;;;;26.30;13.23;;;;;;;-4.03;100.00;102724.78;5033893;28;20084;-50
2021/12/21 08:11:09;;;;;;;26.40;12.30;;;;;;;-3.99;100.00;102721.47;5031100;28;20435;-51
2021/12/21 08:13:39;;;;;;;24.55;12.70;;;;;;;-3.98;100.00;102726.63;5032235;28;20531;-53
2021/12/21 08:16:08;;;;;;;23.92;11.85;;;;;;;-3.97;100.00;102725.78;5034223;28;20041;-52
2021/12/21 08:18:36;;;;;;;21.77;12.60;;;;;;;-3.92;100.00;102716.50;5034270;28;20049;-51
2021/12/21 08:21:04;;;;;;;20.50;11.82;;;;;;;-3.95;100.00;102719.00;5034218;28;20064;-50
2021/12/21 08:23:34;;;;;;;22.13;11.90;;;;;;;-3.89;100.00;102722.56;5034238;28;20052;-52
2021/12/21 08:26:04;;;;;;;21.13;11.50;;;;;;;-3.87;100.00;102732.06;5032803;28;20480;-50
2021/12/21 08:28:32;;;;;;;18.40;10.55;;;;;;;-3.83;100.00;102733.88;5030323;28;20056;-51
2021/12/21 08:31:00;;;;;;;20.80;11.75;;;;;;;-3.79;100.00;102735.69;5033670;28;20045;-52
2021/12/21 08:33:28;;;;;;;18.73;10.75;;;;;;;-3.72;100.00;102728.09;5029444;28;20056;-50
2021/12/21 08:35:57;;;;;;;19.50;12.00;;;;;;;-3.73;100.00;102729.81;5031367;28;20045;-53
2021/12/21 08:38:25;;;;;;;19.35;11.50;;;;;;;-3.57;100.00;102742.22;5031638;28;20049;-52
2021/12/21 08:40:57;;;;;;;18.20;11.18;;;;;;;-3.48;100.00;102733.81;5031010;28;20058;-53
2021/12/21 08:43:28;;;;;;;18.10;11.13;;;;;;;-3.44;100.00;102735.63;5032977;28;20060;-53
2021/12/21 08:45:56;;;;;;;20.75;11.57;;;;;;;-3.43;100.00;102739.09;5032692;28;20103;-54
2021/12/21 08:48:26;;;;;;;17.90;11.18;;;;;;;-3.27;100.00;102740.34;5033344;28;20483;-54
2021/12/21 08:50:56;;;;;;;18.40;10.82;;;;;;;-3.16;100.00;102743.13;5033511;28;20436;-54
2021/12/21 08:53:25;;;;;;;17.08;11.10;;;;;;;-3.16;100.00;102743.13;5033776;28;20050;-54
2021/12/21 08:55:55;;;;;;;19.48;11.32;;;;;;;-3.13;100.00;102743.22;5031222;28;20053;-53
2021/12/21 08:58:24;;;;;;;19.73;11.35;;;;;;;-2.93;100.00;102741.03;5029862;28;20055;-52
2021/12/21 09:00:53;;;;;;;22.80;12.05;;;;;;;-2.86;100.00;102739.47;5033489;28;20103;-54
2021/12/21 09:03:22;;;;;;;20.50;11.30;;;;;;;-2.72;100.00;102740.63;5033610;28;20084;-51
2021/12/21 09:05:52;;;;;;;20.45;12.48;;;;;;;-2.48;100.00;102744.53;5033490;28;20065;-51
2021/12/21 09:08:20;;;;;;;18.67;12.02;;;;;;;-2.45;100.00;102749.78;5033333;28;20537;-53
2021/12/21 09:10:49;;;;;;;20.23;12.73;;;;;;;-2.35;100.00;102743.94;5030385;28;20052;-54
2021/12/21 09:13:18;;;;;;;22.05;12.88;;;;;;;-2.14;100.00;102743.47;5030517;28;20053;-52
2021/12/21 09:15:46;;;;;;;27.58;12.98;;;;;;;-2.06;100.00;102749.63;5033033;28;20068;-52
2021/12/21 09:18:14;;;;;;;22.38;12.18;;;;;;;-1.96;100.00;102745.50;5033145;28;20473;-53
2021/12/21 09:20:42;;;;;;;22.52;11.95;;;;;;;-1.70;100.00;102748.53;5033148;28;20049;-53
2021/12/21 09:23:11;;;;;;;22.73;12.30;;;;;;;-1.48;100.00;102755.75;5033083;28;20107;-53
2021/12/21 09:25:40;;;;;;;20.20;11.52;;;;;;;-1.18;100.00;102749.31;5032237;28;20602;-53
2021/12/21 09:28:08;;;;;;;20.38;11.80;;;;;;;-1.01;100.00;102740.06;5029639;28;20156;-51
2021/12/21 09:30:39;;;;;;;21.40;11.52;;;;;;;-0.97;100.00;102736.66;5030326;28;20059;-53
2021/12/21 09:33:07;;;;;;;19.45;11.05;;;;;;;-0.96;100.00;102741.00;5032809;28;20056;-53
2021/12/21 09:35:35;;;;;;;16.75;10.70;;;;;;;-1.03;100.00;102731.44;5029645;28;20560;-53
2021/12/21 09:38:04;;;;;;;19.40;10.93;;;;;;;-1.13;100.00;102732.16;5029491;28;20057;-53
2021/12/21 09:40:39;;;;;;;18.08;10.80;;;;;;;-1.23;100.00;102729.47;5032932;28;20106;-53
2021/12/21 09:43:08;;;;;;;18.27;10.65;;;;;;;-1.29;100.00;102733.66;5032659;28;20054;-53
2021/12/21 09:45:39;;;;;;;19.88;10.48;;;;;;;-1.20;100.00;102738.94;5032618;28;20053;-52
2021/12/21 09:48:07;;;;;;;18.52;10.68;;;;;;;-1.27;100.00;102739.72;5031927;28;20064;-56
2021/12/21 09:50:37;;;;;;;18.48;10.38;;;;;;;-1.36;100.00;102741.31;5032430;28;20493;-55
2021/12/21 09:53:05;;;;;;;21.35;11.85;;;;;;;-1.36;100.00;102737.88;5031368;28;20546;-54
2021/12/21 09:55:33;;;;;;;18.35;10.65;;;;;;;-1.45;100.00;102728.25;5028979;28;20061;-53
2021/12/21 09:58:02;;;;;;;24.33;13.32;;;;;;;-1.44;100.00;102722.25;5030601;28;20053;-55
2021/12/21 10:00:33;;;;;;;21.88;11.63;;;;;;;-1.41;100.00;102724.03;5028960;28;20045;-54
2021/12/21 10:03:05;;;;;;;21.17;11.60;;;;;;;-1.37;100.00;102715.47;5027762;28;20061;-51
2021/12/21 10:05:36;;;;;;;22.10;12.30;;;;;;;-1.32;100.00;102713.84;5030459;28;20900;-53
2021/12/21 10:08:06;;;;;;;22.65;11.50;;;;;;;-1.35;100.00;102721.50;5028536;28;20396;-55
2021/12/21 10:10:36;;;;;;;21.25;11.93;;;;;;;-1.40;100.00;102726.63;5030341;28;20046;-53
2021/12/21 10:13:10;;;;;;;18.05;11.52;;;;;;;-1.32;100.00;102726.75;5030901;28;20045;-54
2021/12/21 10:15:40;;;;;;;20.77;11.73;;;;;;;-1.27;100.00;102719.94;5032237;28;20057;-53
2021/12/21 10:18:10;;;;;;;20.80;11.85;;;;;;;-1.22;100.00;102723.44;5031723;28;20037;-52
2021/12/21 10:20:41;;;;;;;21.98;12.65;;;;;;;-1.26;100.00;102724.22;5031747;28;20129;-53
2021/12/21 10:23:12;;;;;;;20.00;12.68;;;;;;;-1.18;100.00;102731.25;5031413;28;20057;-52
2021/12/21 10:25:47;;;;;;;23.60;12.18;;;;;;;-1.15;100.00;102729.56;5031690;28;20057;-53
2021/12/21 10:28:31;;;;;;;21.95;12.65;;;;;;;-1.10;100.00;102719.31;5031525;28;20492;-53
2021/12/21 10:31:01;;;;;;;24.15;12.95;;;;;;;-1.07;100.00;102716.75;5030347;28;20049;-52
2021/12/21 10:33:31;;;;;;;23.25;13.10;;;;;;;-1.07;100.00;102720.19;5026735;28;20044;-53
2021/12/21 10:36:00;;;;;;;23.10;12.90;;;;;;;-1.05;100.00;102715.03;5030804;28;20045;-51
2021/12/21 10:38:32;;;;;;;25.55;14.38;;;;;;;-1.00;100.00;102715.13;5031664;28;20099;-54
2021/12/21 10:41:07;;;;;;;23.67;12.38;;;;;;;-0.99;100.00;102711.69;5031636;28;20057;-52
2021/12/21 10:43:35;;;;;;;21.60;12.98;;;;;;;-0.98;100.00;102706.53;5031728;28;20056;-55
2021/12/21 10:46:04;;;;;;;26.25;13.70;;;;;;;-1.00;100.00;102697.91;5031346;28;20049;-52
2021/12/21 10:48:36;;;;;;;24.48;13.15;;;;;;;-0.95;100.00;102706.56;5027441;28;20377;-53
2021/12/21 10:51:08;;;;;;;22.23;13.30;;;;;;;-0.91;100.00;102704.91;5028429;28;20049;-52
2021/12/21 10:53:37;;;;;;;29.48;14.60;;;;;;;-0.94;100.00;102705.72;5031687;28;20806;-54
2021/12/21 10:56:09;;;;;;;26.95;14.57;;;;;;;-0.96;100.00;102702.25;5031418;28;20128;-51
2021/12/21 10:58:39;;;;;;;26.50;14.57;;;;;;;-0.96;100.00;102697.09;5031504;28;20548;-53
2021/12/21 11:01:10;;;;;;;23.13;14.63;;;;;;;-0.95;100.00;102685.06;5031401;28;20099;-52
2021/12/21 11:03:46;;;;;;;30.40;16.02;;;;;;;-0.94;100.00;102684.19;5030032;28;20111;-53
2021/12/21 11:06:16;;;;;;;25.80;15.35;;;;;;;-0.90;100.00;102673.03;5026791;28;20046;-52
2021/12/21 11:08:46;;;;;;;29.20;15.38;;;;;;;-0.90;100.00;102665.28;5029742;28;20042;-53
2021/12/21 11:11:26;;;;;;;26.80;14.25;;;;;;;-0.88;100.00;102672.22;5031330;28;20060;-55
2021/12/21 11:14:08;;;;;;;29.65;16.60;;;;;;;-0.87;100.00;102668.78;5030785;28;20058;-55
2021/12/21 11:16:41;;;;;;;;;;;;;;;-0.86;100.00;102667.06;5028278;28;20233;-50
2021/12/21 11:19:12;;;;;;;31.40;17.45;;;;;;;-0.82;100.00;102660.22;5028541;28;19948;-55
2021/12/21 11:21:42;;;;;;;33.30;17.10;;;;;;;-0.80;100.00;102663.69;5031212;28;20049;-52
2021/12/21 11:24:13;;;;;;;35.38;18.30;;;;;;;-0.75;100.00;102662.91;5030958;28;20049;-53
2021/12/21 11:26:43;;;;;;;32.75;17.75;;;;;;;-0.73;100.00;102663.78;5031608;28;20061;-56
2021/12/21 11:29:14;;;;;;;31.40;18.75;;;;;;;-0.70;100.00;102662.94;5029185;28;20046;-55
2021/12/21 11:31:44;;;;;;;36.30;19.70;;;;;;;-0.69;100.00;102662.94;5028107;28;20408;-53
2021/12/21 11:34:20;;;;;;;35.50;18.38;;;;;;;-0.67;100.00;102657.78;5029292;28;20374;-55
2021/12/21 11:39:38;;;;;;;35.33;20.02;;;;;;;-0.61;100.00;102665.63;5031262;28;20492;-52
2021/12/21 11:42:09;;;;;;;35.42;21.20;;;;;;;-0.58;100.00;102657.03;5031042;28;20046;-51
2021/12/21 11:44:50;;;;;;;37.40;20.38;;;;;;;-0.31;100.00;102655.56;5031170;28;20132;-55
2021/12/21 11:47:26;;;;;;;38.05;21.63;;;;;;;-0.36;100.00;102643.44;5027022;28;20516;-54
2021/12/21 11:50:00;;;;;;;39.47;20.65;;;;;;;-0.41;100.00;102650.31;5027971;28;20049;-54
2021/12/21 11:52:29;;;;;;;32.47;19.90;;;;;;;-0.41;100.00;102639.97;5028926;28;20045;-54
2021/12/21 11:54:59;;;;;;;39.22;21.00;;;;;;;-0.39;100.00;102643.44;5026217;28;20053;-53
2021/12/21 11:57:38;;;;;;;36.83;20.90;;;;;;;-0.41;100.00;102644.25;5030110;28;20753;-54
2021/12/21 12:00:14;;;;;;;38.25;20.27;;;;;;;-0.39;100.00;102633.09;5031254;28;20398;-53